Time;durP1;ratioP1;P1;durP2;ratioP2;P2;SDS_P1;SDS_P2;PMS_P1;PMS_P2;Temp;Humidity;BMP_temperature;BMP_pressure;BME280_temperature;BME280_humidity;BME280_pressure;Samples;Min_cycle;Max_cycle;Signal;HPM_P1;HPM_P2
2023/10/06 00:00:40;;;;;;;13.40;6.00;;;;;;;15.11;51.19;100578.77;105102;1261;60499;-66
2023/10/06 00:03:11;;;;;;;13.80;6.80;;;;;;;15.12;51.16;100578.78;105309;1256;64269;-60
2023/10/06 00:05:39;;;;;;;11.00;6.30;;;;;;;15.13;51.09;100580.62;105039;1260;60585;-64
2023/10/06 00:08:17;;;;;;;13.70;6.70;;;;;;;15.16;51.23;100581.82;105111;1256;61605;-66
2023/10/06 00:10:51;;;;;;;12.40;6.00;;;;;;;15.16;51.22;100584.58;105271;1256;64920;-68
2023/10/06 00:13:20;;;;;;;15.20;6.50;;;;;;;15.17;51.11;100577.66;105301;1256;61381;-63
2023/10/06 00:15:50;;;;;;;12.40;6.60;;;;;;;15.17;51.14;100577.41;105230;1256;63749;-64
2023/10/06 00:18:26;;;;;;;12.30;6.60;;;;;;;15.18;51.31;100583.19;105066;1256;60912;-67
2023/10/06 00:20:57;;;;;;;13.90;6.90;;;;;;;15.18;51.22;100581.00;105718;1256;60610;-66
2023/10/06 00:23:30;;;;;;;11.70;6.00;;;;;;;15.20;51.26;100586.73;105907;1256;63639;-66
2023/10/06 00:25:59;;;;;;;11.40;6.30;;;;;;;15.20;51.19;100585.09;105628;1260;61381;-64
2023/10/06 00:28:27;;;;;;;13.10;6.20;;;;;;;15.21;51.17;100583.06;105598;1260;63716;-66
2023/10/06 00:30:57;;;;;;;11.10;5.20;;;;;;;15.22;51.20;100582.81;105997;1253;60537;-66
2023/10/06 00:33:37;;;;;;;11.90;5.50;;;;;;;15.22;51.20;100580.09;106052;1258;60458;-63
2023/10/06 00:36:13;;;;;;;10.90;5.70;;;;;;;15.24;51.17;100574.29;105733;1257;64984;-65
2023/10/06 00:38:45;;;;;;;14.80;7.00;;;;;;;15.25;50.96;100573.80;105543;1253;61489;-68
2023/10/06 00:41:15;;;;;;;11.10;6.90;;;;;;;15.25;51.04;100576.12;105401;1256;64457;-65
2023/10/06 00:43:46;;;;;;;13.40;5.90;;;;;;;15.26;51.08;100577.29;105445;1253;60427;-66
2023/10/06 00:46:15;;;;;;;15.50;5.70;;;;;;;15.27;51.09;100577.77;105263;1259;60719;-64
2023/10/06 00:48:44;;;;;;;12.20;6.30;;;;;;;15.28;51.25;100580.09;105648;1257;64904;-67
2023/10/06 00:51:19;;;;;;;14.30;5.50;;;;;;;15.28;51.19;100573.34;105381;1258;60969;-65
2023/10/06 00:53:47;;;;;;;10.90;5.40;;;;;;;15.29;50.97;100574.84;105294;1257;63824;-65
2023/10/06 00:56:15;;;;;;;12.70;6.30;;;;;;;15.29;50.94;100575.55;105561;1253;60519;-66
2023/10/06 00:58:43;;;;;;;10.30;5.60;;;;;;;15.29;50.89;100575.53;105429;1253;60459;-66
2023/10/06 01:01:12;;;;;;;9.70;5.20;;;;;;;15.30;50.98;100575.54;105302;1253;64911;-66
2023/10/06 01:03:42;;;;;;;12.30;5.90;;;;;;;15.29;50.87;100574.84;105356;1254;69654;-64
2023/10/06 01:06:17;;;;;;;10.00;5.40;;;;;;;15.30;51.02;100576.53;105521;1258;63709;-61
2023/10/06 01:08:52;;;;;;;14.70;5.60;;;;;;;15.30;50.87;100575.80;105442;1253;60560;-63
2023/10/06 01:11:25;;;;;;;11.30;5.60;;;;;;;15.30;50.89;100570.37;105419;1253;60382;-65
2023/10/06 01:13:55;;;;;;;12.20;5.50;;;;;;;15.30;51.04;100572.85;105444;1253;66263;-62
2023/10/06 01:16:38;;;;;;;11.30;6.20;;;;;;;15.30;51.12;100575.51;105963;1253;62542;-65
2023/10/06 01:19:16;;;;;;;11.50;5.50;;;;;;;15.31;51.13;100577.73;105600;1256;63763;-64
2023/10/06 01:21:47;;;;;;;11.10;5.50;;;;;;;15.31;51.16;100577.34;105439;1253;60477;-62
2023/10/06 01:24:23;;;;;;;12.30;5.60;;;;;;;15.31;51.36;100575.61;105349;1258;60367;-61
2023/10/06 01:26:52;;;;;;;;;;;;;;;15.31;51.27;100573.32;106005;1253;64914;-62
2023/10/06 01:29:30;;;;;;;12.60;5.50;;;;;;;15.29;51.30;100572.55;105328;1259;61435;-62
2023/10/06 01:31:57;;;;;;;12.90;5.00;;;;;;;15.26;51.32;100574.98;105860;1256;62764;-64
2023/10/06 01:34:27;;;;;;;9.90;4.60;;;;;;;15.23;51.54;100574.16;106030;1257;61308;-62
2023/10/06 01:36:55;;;;;;;10.70;5.00;;;;;;;15.22;51.54;100569.70;105348;1259;60423;-60
2023/10/06 01:39:26;;;;;;;10.80;5.20;;;;;;;15.19;51.59;100568.90;105387;1255;64889;-65
2023/10/06 01:41:54;;;;;;;13.50;5.80;;;;;;;15.18;51.82;100565.70;105494;1257;60488;-64
2023/10/06 01:44:22;;;;;;;11.10;5.60;;;;;;;15.17;51.80;100563.67;105937;1253;63887;-62
2023/10/06 01:46:53;;;;;;;11.00;5.20;;;;;;;15.16;51.83;100567.45;105404;1253;60487;-65
2023/10/06 01:49:21;;;;;;;13.70;5.60;;;;;;;15.15;51.74;100567.37;106036;1258;60397;-63
2023/10/06 01:51:52;;;;;;;10.00;5.30;;;;;;;15.14;51.94;100567.90;105259;1253;63615;-66
2023/10/06 01:54:27;;;;;;;10.50;5.60;;;;;;;15.11;52.12;100568.16;105353;1259;61301;-65
2023/10/06 01:56:55;;;;;;;11.40;5.60;;;;;;;15.07;52.20;100571.50;105994;1253;62520;-65
2023/10/06 01:59:23;;;;;;;10.30;5.20;;;;;;;15.04;52.34;100574.39;105301;1259;60393;-68
2023/10/06 02:01:50;;;;;;;9.90;5.60;;;;;;;15.02;52.27;100575.85;105441;1253;60497;-62
2023/10/06 02:04:19;;;;;;;9.80;5.10;;;;;;;14.98;52.46;100570.20;105441;1253;64915;-64
2023/10/06 02:06:51;;;;;;;10.10;4.70;;;;;;;14.95;52.56;100567.52;105372;1253;61850;-59
2023/10/06 02:09:18;;;;;;;13.00;6.20;;;;;;;14.91;52.71;100570.19;105436;1253;62535;-61
2023/10/06 02:11:46;;;;;;;8.30;4.60;;;;;;;14.87;52.83;100572.84;105398;1253;60425;-62
2023/10/06 02:14:17;;;;;;;12.80;5.50;;;;;;;14.85;52.88;100571.86;105377;1256;60662;-65
2023/10/06 02:16:45;;;;;;;8.70;4.20;;;;;;;14.86;52.99;100580.38;105395;1253;64975;-67
2023/10/06 02:19:21;;;;;;;12.20;4.80;;;;;;;14.89;52.84;100580.80;106270;1253;61704;-65
2023/10/06 02:21:49;;;;;;;9.20;4.80;;;;;;;14.89;53.13;100591.25;105299;1255;64200;-65
2023/10/06 02:24:18;;;;;;;9.80;4.60;;;;;;;14.87;53.11;100597.39;105513;1253;60455;-65
2023/10/06 02:27:00;;;;;;;9.40;5.10;;;;;;;14.84;52.93;100598.05;106101;1258;60364;-64
2023/10/06 02:29:29;;;;;;;10.80;5.40;;;;;;;14.80;53.15;100602.34;105878;1253;63693;-64
2023/10/06 02:32:01;;;;;;;9.90;4.90;;;;;;;14.75;53.31;100598.55;105713;1254;61770;-64
2023/10/06 02:34:32;;;;;;;10.70;4.70;;;;;;;14.70;53.43;100598.52;105925;1253;62445;-63
2023/10/06 02:37:04;;;;;;;10.80;5.30;;;;;;;14.65;53.59;100596.66;105945;1254;61809;-63
2023/10/06 02:39:37;;;;;;;10.00;4.40;;;;;;;14.61;53.70;100598.63;105801;1253;60560;-65
2023/10/06 02:42:12;;;;;;;9.80;4.70;;;;;;;14.57;53.67;100597.68;105792;1253;64958;-65
2023/10/06 02:44:41;;;;;;;10.30;4.10;;;;;;;14.55;53.78;100597.05;105626;1254;61514;-62
2023/10/06 02:47:09;;;;;;;9.30;5.30;;;;;;;14.54;53.98;100598.03;105733;1252;63657;-63
2023/10/06 02:49:47;;;;;;;9.90;4.30;;;;;;;14.52;54.18;100600.81;105542;1255;60563;-63
2023/10/06 02:52:16;;;;;;;9.40;4.20;;;;;;;14.55;54.23;100596.48;106145;1253;60557;-65
2023/10/06 02:54:55;;;;;;;9.90;4.70;;;;;;;14.60;54.13;100600.48;105292;1259;64852;-67
2023/10/06 02:57:25;;;;;;;10.70;4.50;;;;;;;14.59;54.29;100599.83;106015;1258;60458;-66
2023/10/06 02:59:56;;;;;;;10.10;4.10;;;;;;;14.58;54.38;100601.04;106034;1253;63661;-65
2023/10/06 03:02:26;;;;;;;10.10;4.60;;;;;;;14.55;54.44;100595.31;106007;1259;60455;-60
2023/10/06 03:04:56;;;;;;;13.60;4.80;;;;;;;14.52;54.63;100596.98;105887;1253;60451;-62
2023/10/06 03:07:24;;;;;;;10.10;5.20;;;;;;;14.48;54.64;100602.15;105166;1253;64995;-64
2023/10/06 03:09:52;;;;;;;8.40;4.30;;;;;;;14.43;54.79;100604.38;105345;1255;60475;-62
2023/10/06 03:14:56;;;;;;;8.80;4.70;;;;;;;14.34;55.09;100599.21;105314;1257;60632;-63
2023/10/06 03:17:24;;;;;;;7.80;4.10;;;;;;;14.30;55.06;100599.72;105882;1257;60445;-64
2023/10/06 03:20:11;;;;;;;8.60;3.80;;;;;;;14.29;55.21;100596.10;105273;1260;64873;-63
2023/10/06 03:22:42;;;;;;;13.20;4.50;;;;;;;14.30;55.09;100593.86;105410;1257;61513;-64
2023/10/06 03:25:20;;;;;;;10.20;4.70;;;;;;;14.28;55.11;100596.38;105424;1259;64257;-64
2023/10/06 03:27:54;;;;;;;8.50;4.40;;;;;;;14.25;55.28;100601.59;105432;1258;60562;-60
2023/10/06 03:30:34;;;;;;;7.90;4.10;;;;;;;14.20;55.35;100600.09;105992;1255;60439;-62
2023/10/06 03:33:03;;;;;;;10.10;4.30;;;;;;;14.15;55.42;100601.27;105743;1253;64912;-61
2023/10/06 03:35:45;;;;;;;8.40;4.70;;;;;;;14.08;55.57;100608.93;105865;1256;61454;-63
2023/10/06 03:46:08;;;;;;;9.50;4.20;;;;;;;14.00;56.34;100609.91;105567;1258;64905;-66
2023/10/06 03:48:38;;;;;;;12.60;4.40;;;;;;;14.03;56.28;100610.16;105632;1253;61654;-63
2023/10/06 03:51:06;;;;;;;10.00;4.40;;;;;;;14.02;56.21;100611.64;105556;1254;63735;-63
2023/10/06 03:53:33;;;;;;;13.20;4.60;;;;;;;13.99;56.40;100617.38;105263;1253;61775;-63
2023/10/06 03:56:01;;;;;;;8.00;4.40;;;;;;;13.94;56.50;100615.61;105303;1257;60525;-65
2023/10/06 03:58:28;;;;;;;8.90;4.10;;;;;;;13.90;56.54;100617.56;105904;1253;64911;-65
2023/10/06 04:00:58;;;;;;;10.80;4.20;;;;;;;13.86;56.69;100615.48;106092;1253;61900;-62
2023/10/06 04:03:26;;;;;;;9.70;4.40;;;;;;;13.82;56.99;100617.52;105440;1258;62510;-63
2023/10/06 04:05:54;;;;;;;9.50;4.10;;;;;;;13.77;56.99;100617.95;105900;1253;60527;-61
2023/10/06 04:08:22;;;;;;;8.70;3.60;;;;;;;13.77;56.97;100618.29;105503;1252;60988;-65
2023/10/06 04:10:53;;;;;;;9.70;4.50;;;;;;;13.80;57.03;100616.09;105470;1253;64978;-61
2023/10/06 04:13:20;;;;;;;9.40;4.50;;;;;;;13.79;57.10;100612.94;105481;1253;61426;-60
2023/10/06 04:15:52;;;;;;;8.80;4.00;;;;;;;13.77;57.12;100612.95;105247;1257;63741;-68
2023/10/06 04:18:24;;;;;;;11.20;4.80;;;;;;;13.74;57.29;100618.48;105181;1254;60851;-67
2023/10/06 04:20:53;;;;;;;8.30;3.70;;;;;;;13.71;57.34;100621.42;105315;1258;60352;-59
2023/10/06 04:23:23;;;;;;;7.90;3.60;;;;;;;13.67;57.41;100617.44;105484;1254;64935;-66
2023/10/06 04:25:55;;;;;;;7.30;3.60;;;;;;;13.62;57.53;100623.14;105453;1256;61282;-66
2023/10/06 04:28:25;;;;;;;9.00;4.00;;;;;;;13.58;57.68;100625.61;105281;1258;62413;-66
2023/10/06 04:30:54;;;;;;;7.60;3.70;;;;;;;13.59;57.49;100627.08;105895;1259;60777;-68
2023/10/06 04:33:25;;;;;;;7.90;3.90;;;;;;;13.62;57.41;100629.34;105457;1259;60476;-66
2023/10/06 04:35:56;;;;;;;7.40;3.90;;;;;;;13.63;57.41;100626.56;105907;1257;63683;-61
2023/10/06 04:38:25;;;;;;;8.20;3.70;;;;;;;13.62;57.42;100635.27;105322;1257;61507;-58
2023/10/06 04:40:52;;;;;;;7.50;3.80;;;;;;;13.60;57.45;100635.44;105273;1260;63723;-60
2023/10/06 04:43:20;;;;;;;9.70;4.00;;;;;;;13.60;57.67;100641.16;105258;1258;60592;-61
2023/10/06 04:45:49;;;;;;;13.70;4.60;;;;;;;13.56;57.70;100642.16;105388;1259;60560;-60
2023/10/06 04:48:21;;;;;;;6.80;3.50;;;;;;;13.53;57.72;100642.05;105294;1254;64967;-60
2023/10/06 04:50:51;;;;;;;6.50;3.00;;;;;;;13.57;57.77;100641.35;105196;1253;61424;-61
2023/10/06 04:53:19;;;;;;;7.60;3.80;;;;;;;13.64;57.72;100645.55;105404;1256;63710;-57
2023/10/06 04:55:47;;;;;;;8.10;3.40;;;;;;;13.66;57.76;100648.99;105512;1257;60562;-58
2023/10/06 04:58:15;;;;;;;9.00;4.00;;;;;;;13.65;57.75;100650.55;106219;1254;60823;-58
2023/10/06 05:00:42;;;;;;;8.40;3.70;;;;;;;13.62;57.72;100650.86;105343;1257;63754;-57
2023/10/06 05:03:11;;;;;;;7.70;3.30;;;;;;;13.58;57.90;100653.80;105094;1259;61363;-60
2023/10/06 05:05:40;;;;;;;9.50;4.00;;;;;;;13.55;58.06;100652.79;105399;1257;63824;-60
2023/10/06 05:08:14;;;;;;;8.40;3.90;;;;;;;13.53;58.11;100656.13;105420;1260;61280;-63
2023/10/06 05:10:42;;;;;;;8.20;3.70;;;;;;;13.56;58.11;100660.67;105447;1259;60575;-61
2023/10/06 05:13:10;;;;;;;7.90;3.60;;;;;;;13.61;58.16;100661.09;105244;1258;63728;-60
2023/10/06 05:15:41;;;;;;;8.20;3.70;;;;;;;13.65;57.85;100668.17;109073;1254;61898;-55
2023/10/06 05:18:15;;;;;;;7.70;3.80;;;;;;;13.67;57.64;100671.89;109071;1254;63670;-63
2023/10/06 05:20:43;;;;;;;8.20;3.20;;;;;;;13.69;57.71;100674.19;107887;1254;60021;-59
2023/10/06 05:23:14;;;;;;;8.40;3.50;;;;;;;13.69;57.62;100673.83;105007;1260;60381;-60
2023/10/06 05:25:44;;;;;;;9.90;4.00;;;;;;;13.68;57.54;100680.20;106014;1258;64958;-60
2023/10/06 05:28:16;;;;;;;9.40;3.40;;;;;;;13.68;57.40;100678.81;108633;1258;60122;-63
2023/10/06 05:30:44;;;;;;;8.70;3.00;;;;;;;13.75;57.31;100679.33;105324;1260;64152;-64
2023/10/06 05:33:14;;;;;;;7.10;3.10;;;;;;;13.83;57.12;100684.08;105206;1261;60593;-63
2023/10/06 05:35:43;;;;;;;8.10;3.20;;;;;;;13.87;56.85;100677.51;105418;1260;60427;-62
2023/10/06 05:38:14;;;;;;;7.90;3.20;;;;;;;13.91;56.68;100682.42;105237;1257;63824;-64
2023/10/06 05:40:44;;;;;;;9.00;3.70;;;;;;;13.94;56.42;100683.03;105232;1269;61551;-61
2023/10/06 05:43:12;;;;;;;9.40;3.70;;;;;;;13.96;56.51;100688.50;105083;1256;64820;-63
2023/10/06 05:45:41;;;;;;;8.50;3.50;;;;;;;13.98;56.32;100686.05;105361;1260;60552;-61
2023/10/06 05:48:10;;;;;;;6.30;2.90;;;;;;;14.01;56.15;100691.23;105143;1259;60523;-51
2023/10/06 05:50:40;;;;;;;7.80;3.50;;;;;;;14.03;56.17;100692.63;105344;1256;64939;-58
2023/10/06 05:53:12;;;;;;;6.50;2.90;;;;;;;14.08;56.04;100694.30;105486;1259;64307;-60
2023/10/06 05:55:43;;;;;;;7.10;3.10;;;;;;;14.18;55.78;100702.96;105265;1257;64272;-64
2023/10/06 05:58:19;;;;;;;7.30;3.00;;;;;;;14.24;55.59;100704.34;105160;1260;60564;-62
2023/10/06 06:01:00;;;;;;;9.30;3.60;;;;;;;14.25;55.39;100703.50;105124;1254;59146;-64
2023/10/06 06:03:30;;;;;;;12.20;2.90;;;;;;;14.31;55.48;100703.77;105269;1257;63659;-63
2023/10/06 06:06:08;;;;;;;7.70;3.20;;;;;;;14.36;55.42;100706.83;105814;1259;60520;-62
2023/10/06 06:08:38;;;;;;;8.00;3.10;;;;;;;14.40;55.16;100711.57;105805;1260;72427;-63
2023/10/06 06:11:06;;;;;;;8.40;3.20;;;;;;;14.43;55.00;100709.70;105564;1254;60501;-63
2023/10/06 06:13:38;;;;;;;7.80;2.80;;;;;;;14.45;54.72;100717.85;105767;1259;60473;-60
2023/10/06 06:16:06;;;;;;;20.40;2.70;;;;;;;14.41;54.76;100721.02;105430;1254;257540;-65
2023/10/06 06:20:52;;;;;;;12.60;1.30;;;;;;;14.36;54.91;100722.30;102484;1289;601203;-64
2023/10/06 06:23:20;;;;;;;10.00;2.80;;;;;;;14.61;54.11;100725.67;104448;1266;59277;-64
2023/10/06 06:25:48;;;;;;;10.90;2.50;;;;;;;14.72;53.62;100727.40;104521;1266;59270;-61
2023/10/06 06:28:16;;;;;;;7.00;2.80;;;;;;;14.80;53.06;100731.08;104363;1267;62046;-60
2023/10/06 06:30:47;;;;;;;6.20;2.20;;;;;;;14.86;52.08;100730.51;104382;1266;61333;-61
2023/10/06 06:33:22;;;;;;;6.10;1.90;;;;;;;14.92;51.81;100743.23;104356;1266;63813;-60
2023/10/06 06:35:50;;;;;;;7.30;2.00;;;;;;;14.91;51.42;100738.34;104525;1263;59372;-58
2023/10/06 06:38:18;;;;;;;11.70;2.50;;;;;;;14.91;51.63;100735.58;104713;1263;59253;-64
2023/10/06 06:40:46;;;;;;;8.00;2.20;;;;;;;14.92;51.30;100738.14;104747;1267;63987;-59
2023/10/06 06:43:14;;;;;;;8.30;2.10;;;;;;;14.94;50.85;100744.94;104737;1264;61962;-60
2023/10/06 06:45:41;;;;;;;5.40;1.60;;;;;;;14.95;50.71;100746.64;104842;1260;63674;-61
2023/10/06 06:48:16;;;;;;;7.50;2.50;;;;;;;14.95;50.57;100742.20;104930;1261;59855;-64
2023/10/06 06:50:44;;;;;;;8.70;2.00;;;;;;;14.99;50.43;100743.79;104923;1261;59720;-61
2023/10/06 06:53:12;;;;;;;5.30;1.60;;;;;;;15.02;50.27;100743.30;104797;1261;64149;-64
2023/10/06 06:55:40;;;;;;;6.10;2.20;;;;;;;15.04;50.60;100742.45;105007;1265;61545;-64
2023/10/06 06:58:11;;;;;;;8.90;2.30;;;;;;;15.06;50.24;100751.61;104868;1260;63822;-60
2023/10/06 07:00:42;;;;;;;9.30;2.10;;;;;;;15.11;50.25;100751.84;105033;1261;59759;-60
2023/10/06 07:03:10;;;;;;;5.80;1.30;;;;;;;15.15;49.82;100752.92;104980;1264;60418;-55
2023/10/06 07:05:39;;;;;;;7.40;1.30;;;;;;;15.14;48.89;100759.19;105103;1261;64080;-60
2023/10/06 07:08:07;;;;;;;7.00;2.00;;;;;;;15.11;48.63;100760.41;105084;1263;61615;-59
2023/10/06 07:10:38;;;;;;;7.70;1.80;;;;;;;15.09;48.24;100760.52;106021;1263;64229;-57
2023/10/06 07:13:06;;;;;;;4.20;1.20;;;;;;;15.10;47.78;100762.20;105058;1260;59694;-59
2023/10/06 07:15:34;;;;;;;4.20;1.00;;;;;;;15.15;48.08;100768.80;105849;1253;59632;-59
2023/10/06 07:18:03;;;;;;;7.10;1.60;;;;;;;15.21;47.55;100770.76;105543;1256;64141;-60
2023/10/06 07:20:32;;;;;;;4.10;1.30;;;;;;;15.25;47.02;100772.09;106096;1250;61398;-60
2023/10/06 07:23:00;;;;;;;5.10;1.20;;;;;;;15.28;47.03;100770.58;106024;1256;63757;-60
2023/10/06 07:25:28;;;;;;;5.70;1.60;;;;;;;15.31;47.17;100765.57;105987;1256;59613;-60
2023/10/06 07:27:57;;;;;;;4.40;1.00;;;;;;;15.33;47.06;100772.99;106030;1255;59732;-63
2023/10/06 07:30:29;;;;;;;6.10;1.00;;;;;;;15.33;47.27;100779.13;105995;1251;64582;-61
2023/10/06 07:32:56;;;;;;;6.10;1.20;;;;;;;15.31;46.72;100782.56;106042;1251;61359;-59
2023/10/06 07:35:31;;;;;;;4.70;1.30;;;;;;;15.29;45.97;100781.69;106186;1252;73217;-60
2023/10/06 07:37:59;;;;;;;6.20;1.60;;;;;;;15.28;45.46;100782.33;105503;1253;59824;-58
2023/10/06 07:40:27;;;;;;;3.10;1.00;;;;;;;15.28;45.43;100785.31;105352;1254;59640;-59
2023/10/06 07:42:55;;;;;;;4.50;1.30;;;;;;;15.27;45.82;100782.25;106027;1252;64691;-61
2023/10/06 07:45:24;;;;;;;5.30;1.50;;;;;;;15.26;45.93;100777.56;105530;1251;61877;-60
2023/10/06 07:47:53;;;;;;;8.30;2.00;;;;;;;15.27;46.52;100778.34;106114;1253;63738;-59
2023/10/06 07:50:21;;;;;;;5.20;1.50;;;;;;;15.29;46.31;100779.73;105466;1253;60885;-61
2023/10/06 07:52:49;;;;;;;7.10;1.50;;;;;;;15.30;45.77;100780.54;105523;1252;59686;-58
2023/10/06 07:55:21;;;;;;;3.60;0.90;;;;;;;15.30;45.08;100780.17;105553;1251;64069;-62
2023/10/06 07:57:48;;;;;;;6.70;1.20;;;;;;;15.33;45.28;100803.56;105423;1255;60079;-60
2023/10/06 08:00:24;;;;;;;5.00;1.40;;;;;;;15.34;45.38;100797.64;105437;1253;63886;-62
2023/10/06 08:02:51;;;;;;;7.40;1.20;;;;;;;15.35;45.47;100802.45;106174;1251;59986;-60
2023/10/06 08:05:19;;;;;;;6.40;1.20;;;;;;;15.41;45.34;100804.06;106182;1252;59659;-58
2023/10/06 08:07:47;;;;;;;7.40;1.30;;;;;;;15.48;44.86;100804.06;105413;1253;64134;-60
2023/10/06 08:14:51;;;;;;;4.20;1.30;;;;;;;15.52;43.91;100812.03;104054;1295;601821;-96
2023/10/06 08:17:21;;;;;;;6.20;1.40;;;;;;;15.66;43.42;100814.58;106950;1275;58823;-95
2023/10/06 08:19:54;;;;;;;4.90;1.40;;;;;;;15.64;43.85;100818.34;106004;1274;59668;-95
2023/10/06 08:22:34;;;;;;;8.20;1.60;;;;;;;15.60;44.13;100818.91;105872;1272;71727;-93
2023/10/06 08:25:10;;;;;;;8.40;1.30;;;;;;;15.58;43.99;100826.17;105703;1277;63574;-94
2023/10/06 08:27:43;;;;;;;9.50;1.30;;;;;;;15.58;43.83;100817.65;105993;1274;244629;-94
2023/10/06 08:30:37;;;;;;;7.60;1.50;;;;;;;15.64;43.58;100816.08;106251;1265;59134;-94
2023/10/06 08:33:11;;;;;;;6.10;1.20;;;;;;;15.69;43.66;100818.43;106524;1269;59329;-95
2023/10/06 08:35:44;;;;;;;5.90;1.40;;;;;;;15.76;43.64;100815.63;106767;1264;66126;-95
2023/10/06 08:38:24;;;;;;;7.40;1.10;;;;;;;15.83;43.60;100812.12;106712;1269;69130;-96
2023/10/06 08:41:01;;;;;;;2.80;0.80;;;;;;;15.93;43.48;100812.75;106462;1262;72500;-92
2023/10/06 08:43:53;;;;;;;5.90;1.30;;;;;;;16.05;43.50;100816.40;104695;1268;59745;-60
2023/10/06 08:46:22;;;;;;;3.30;0.90;;;;;;;16.15;43.65;100817.37;104511;1265;60230;-63
2023/10/06 08:48:50;;;;;;;4.70;1.50;;;;;;;16.21;43.00;100820.79;104920;1259;62809;-60
2023/10/06 08:51:19;;;;;;;4.80;1.20;;;;;;;16.21;42.65;100815.95;104836;1260;60377;-59
2023/10/06 08:53:47;;;;;;;10.00;1.20;;;;;;;16.21;43.01;100820.56;104688;1262;74879;-61
2023/10/06 08:56:15;;;;;;;5.80;1.10;;;;;;;16.22;42.46;100818.85;108660;1259;57807;-55
2023/10/06 08:58:44;;;;;;;6.40;1.60;;;;;;;16.26;42.45;100820.25;108748;1259;57374;-64
2023/10/06 09:01:12;;;;;;;6.00;1.10;;;;;;;16.32;42.50;100817.02;108628;1261;64082;-60
2023/10/06 09:03:40;;;;;;;7.20;1.00;;;;;;;16.41;42.30;100816.69;108697;1259;61406;-59
2023/10/06 09:06:11;;;;;;;6.90;1.30;;;;;;;16.48;41.89;100821.25;108752;1259;63785;-60
2023/10/06 09:08:41;;;;;;;6.20;1.30;;;;;;;16.54;41.55;100818.17;108665;1259;62281;-59
2023/10/06 09:11:10;;;;;;;6.10;1.20;;;;;;;16.63;41.92;100816.63;107867;1261;61086;-59
2023/10/06 09:13:37;;;;;;;4.70;1.10;;;;;;;16.73;41.37;100817.78;108596;1258;62956;-60
2023/10/06 09:16:08;;;;;;;8.10;1.50;;;;;;;16.81;41.32;100820.52;104810;1264;62780;-58
2023/10/06 09:18:38;;;;;;;5.90;1.70;;;;;;;16.85;41.21;100823.13;106197;1259;74816;-61
2023/10/06 09:21:16;;;;;;;3.40;1.20;;;;;;;16.89;41.32;100821.20;105451;1261;59722;-58
2023/10/06 09:23:44;;;;;;;4.80;1.00;;;;;;;16.92;40.89;100820.21;105128;1264;62275;-60
2023/10/06 09:26:15;;;;;;;6.60;1.20;;;;;;;16.92;40.48;100832.73;106092;1259;63006;-58
2023/10/06 09:28:48;;;;;;;4.00;1.00;;;;;;;16.91;39.40;100833.00;105028;1265;72633;-60
2023/10/06 09:31:18;;;;;;;9.00;1.20;;;;;;;16.91;39.07;100836.89;105135;1259;72521;-61
2023/10/06 09:33:48;;;;;;;5.20;0.90;;;;;;;16.92;38.99;100841.11;105149;1259;59691;-62
2023/10/06 09:36:21;;;;;;;7.10;1.00;;;;;;;16.95;39.40;100826.95;106659;1264;59695;-60
2023/10/06 09:39:13;;;;;;;7.80;1.20;;;;;;;17.05;39.40;100826.86;104682;1259;64123;-62
2023/10/06 09:41:42;;;;;;;3.60;1.00;;;;;;;17.14;39.27;100832.02;105390;1262;62739;-61
2023/10/06 09:44:11;;;;;;;3.70;1.20;;;;;;;17.20;39.12;100828.47;104764;1264;74916;-62
2023/10/06 09:46:41;;;;;;;4.90;0.90;;;;;;;17.29;38.79;100831.13;106268;1259;59559;-60
2023/10/06 09:49:12;;;;;;;5.00;0.90;;;;;;;17.36;38.84;100830.50;105317;1259;59756;-59
2023/10/06 09:51:41;;;;;;;5.30;1.10;;;;;;;17.41;38.64;100834.02;105291;1260;64135;-61
2023/10/06 09:54:09;;;;;;;7.90;1.10;;;;;;;17.47;38.59;100834.52;104546;1260;61409;-60
2023/10/06 09:56:37;;;;;;;6.50;1.50;;;;;;;17.47;38.80;100834.27;105441;1265;73653;-59
2023/10/06 09:59:05;;;;;;;4.70;0.80;;;;;;;17.45;38.52;100833.42;104578;1265;59749;-59
2023/10/06 10:01:34;;;;;;;5.40;1.20;;;;;;;17.44;37.79;100838.17;104778;1265;59988;-62
2023/10/06 10:04:02;;;;;;;4.20;0.80;;;;;;;17.43;37.21;100839.63;104891;1261;65621;-60
2023/10/06 10:06:30;;;;;;;5.00;1.00;;;;;;;17.42;36.80;100839.79;104766;1267;61841;-61
2023/10/06 10:08:57;;;;;;;3.90;0.70;;;;;;;17.39;35.96;100836.20;104873;1264;63745;-61
2023/10/06 10:11:39;;;;;;;4.40;0.90;;;;;;;17.34;35.47;100840.41;104751;1266;60207;-63
2023/10/06 10:14:49;;;;;;;5.90;0.90;;;;;;;17.33;36.18;100845.12;105475;1260;59843;-62
2023/10/06 10:17:36;;;;;;;3.10;0.80;;;;;;;17.41;36.92;100847.10;105110;1262;64659;-61
2023/10/06 10:20:09;;;;;;;5.00;1.20;;;;;;;17.51;36.62;100844.34;104680;1264;61296;-61
2023/10/06 10:22:40;;;;;;;4.70;0.80;;;;;;;17.55;36.31;100832.79;105474;1263;74859;-60
2023/10/06 10:25:08;;;;;;;3.70;1.40;;;;;;;17.56;36.53;100842.43;105296;1266;59681;-61
2023/10/06 10:27:39;;;;;;;12.30;1.20;;;;;;;17.57;36.28;100838.99;104673;1265;60088;-61
2023/10/06 10:30:12;;;;;;;5.20;1.00;;;;;;;17.57;35.77;100844.41;105438;1260;64157;-61
2023/10/06 10:32:54;;;;;;;3.00;0.70;;;;;;;17.59;35.59;100842.31;105110;1265;60318;-60
2023/10/06 10:35:22;;;;;;;5.80;1.10;;;;;;;17.63;35.41;100847.91;104937;1269;64225;-60
2023/10/06 10:38:06;;;;;;;5.70;0.80;;;;;;;17.67;34.93;100847.23;105098;1267;59923;-64
2023/10/06 10:40:46;;;;;;;5.90;1.00;;;;;;;17.67;34.63;100846.13;104689;1266;59154;-63
2023/10/06 10:43:15;;;;;;;8.30;1.50;;;;;;;17.63;34.72;100855.85;104786;1265;63064;-62
2023/10/06 10:45:45;;;;;;;8.70;1.70;;;;;;;17.55;35.13;100861.12;105083;1265;72742;-62
2023/10/06 10:48:14;;;;;;;5.20;1.20;;;;;;;17.46;35.09;100850.16;105042;1260;62626;-60
2023/10/06 10:50:58;;;;;;;3.50;0.90;;;;;;;17.42;35.26;100849.87;105246;1265;59661;-63
2023/10/06 10:53:30;;;;;;;6.10;1.50;;;;;;;17.43;35.33;100850.86;104661;1260;60288;-64
2023/10/06 10:55:58;;;;;;;7.80;1.00;;;;;;;17.45;35.30;100844.41;104821;1265;64309;-61
2023/10/06 10:58:47;;;;;;;4.20;0.90;;;;;;;17.47;35.06;100845.71;104686;1269;60515;-60
2023/10/06 11:01:31;;;;;;;6.10;1.10;;;;;;;17.46;35.04;100836.56;105045;1264;62451;-62
2023/10/06 11:04:09;;;;;;;6.10;0.80;;;;;;;17.50;35.04;100834.39;104770;1264;59748;-60
2023/10/06 11:06:39;;;;;;;9.10;1.30;;;;;;;17.54;35.21;100830.08;105403;1267;59682;-60
2023/10/06 11:09:25;;;;;;;10.10;1.80;;;;;;;17.57;35.15;100832.20;105361;1264;64109;-65
2023/10/06 11:11:58;;;;;;;2.20;0.90;;;;;;;17.60;35.11;100833.09;104819;1265;61577;-64
2023/10/06 11:14:46;;;;;;;5.80;1.00;;;;;;;17.64;34.63;100831.98;104715;1265;62591;-60
2023/10/06 11:17:14;;;;;;;4.10;1.00;;;;;;;17.64;34.06;100832.17;104667;1264;59633;-64
2023/10/06 11:19:42;;;;;;;4.70;1.00;;;;;;;17.62;33.84;100832.80;105209;1264;59635;-61
2023/10/06 11:22:10;;;;;;;5.80;0.90;;;;;;;17.62;33.75;100832.05;105368;1261;74261;-60
2023/10/06 11:24:39;;;;;;;4.50;1.20;;;;;;;17.64;33.73;100838.39;105464;1263;60146;-60
2023/10/06 11:27:16;;;;;;;11.50;1.40;;;;;;;17.70;34.09;100839.41;105337;1265;62523;-60
2023/10/06 11:29:46;;;;;;;6.80;1.20;;;;;;;17.77;33.87;100833.90;105961;1265;59773;-58
2023/10/06 11:32:15;;;;;;;5.40;1.10;;;;;;;17.81;33.94;100844.30;104780;1265;60904;-58
2023/10/06 11:34:44;;;;;;;7.90;1.40;;;;;;;17.83;33.89;100840.91;104655;1265;64134;-60
2023/10/06 11:37:12;;;;;;;4.80;1.70;;;;;;;17.87;34.03;100846.36;107597;1261;64185;-62
2023/10/06 11:39:39;;;;;;;5.40;1.40;;;;;;;17.93;33.14;100849.88;105290;1264;63795;-64
2023/10/06 11:42:23;;;;;;;6.80;1.20;;;;;;;17.96;33.31;100844.37;105349;1263;63101;-61
2023/10/06 11:44:56;;;;;;;5.70;1.20;;;;;;;18.04;33.05;100845.70;105740;1264;59997;-57
2023/10/06 11:47:26;;;;;;;5.70;1.20;;;;;;;18.12;32.64;100840.73;104950;1265;66303;-59
2023/10/06 11:49:55;;;;;;;4.40;0.80;;;;;;;18.16;31.88;100837.02;104696;1265;60143;-63